Overview Statistics Trail Chart Weather Telemetry Raw packets
 

This is the latest recevied weather packets stored in our database for station/object HP1CDW-10. If no packets are shown the sender has not sent any weather packets the latest 10 day(s).

<< 38 39 40 41 42 43 44 >>
Time Temp. Humidity Pressure Rain* Wind** Luminosity Snow
1787938216 35.56° C 48% 1001.7 hPa - - - -
1787937611 35° C 49% 1001.7 hPa - - - -
1787937006 33.33° C 53% 1001.7 hPa - - - -
1787936402 33.89° C 51% 1001.8 hPa - - - -
1787935797 34.44° C 49% 1001.7 hPa - - - -
1787935192 33.89° C 50% 1001.6 hPa - - - -
1787934587 34.44° C 51% 1001.7 hPa - - - -
1787933983 34.44° C 52% 1001.8 hPa - - - -
1787933378 34.44° C 52% 1001.9 hPa - - - -
1787932773 35° C 52% 1002.2 hPa - - - -
1787931563 35° C 51% 1002.6 hPa - - - -
1787930959 34.44° C 51% 1002.5 hPa - - - -
1787930354 34.44° C 51% 1002.6 hPa - - - -
1787929749 34.44° C 52% 1002.8 hPa - - - -
1787929144 33.89° C 52% 1002.8 hPa - - - -
1787928539 33.89° C 52% 1003 hPa - - - -
1787927935 33.89° C 52% 1003.1 hPa - - - -
1787927330 33.89° C 52% 1003.1 hPa - - - -
1787926725 33.33° C 54% 1003.3 hPa - - - -
1787926120 33.33° C 53% 1003.5 hPa - - - -
1787925516 33.33° C 54% 1003.6 hPa - - - -
1787924911 33.33° C 54% 1003.5 hPa - - - -
1787924306 33.89° C 55% 1003.6 hPa - - - -
1787923701 33.89° C 56% 1003.6 hPa - - - -
1787923096 33.89° C 55% 1003.4 hPa - - - -

* Rain since midnight (hover to see other rain measurements)
** Current wind speed in m/s (hover to see current wind gust speed)